Terminal Aerodrome Forecast
Issued by NWS Miami, FL

Home | Current Version | Previous Version | Text Only | Print | Product List | Glossary On
Versions: 1 2 3 4 5 6 7 8 9 10 11 12 13 14 15 16 17 18 19 20 21 22 23 24 25 26 27 28 29
000
FTUS42 KMFL 232340
TAFFLL
TAF
KFLL 232340Z 2400/2506 17010KT P6SM SCT020 BKN100 BKN250
     FM240200 21005KT P6SM FEW020 SCT250
     FM240400 VRB03KT P6SM SCT035 SCT250
     FM241000 21008KT P6SM VCSH SCT030 SCT150
     FM241800 21015KT P6SM VCTS SCT020CB SCT050 BKN120
     FM250200 VRB03KT P6SM SCT020 BKN150=

USA.gov is the U.S. government's official web portal to all federal, state and local government web resources and services.